Liberty Island — HPUY — position and weather

sailwx.info

Track history (hours):
 
Tides and Currents Weather Stations Pressure Air Temp Water Temp Dewpoint Dewpoint Depression Visibility Wind Speed Wind Dir Waves Ship Positions

Liberty Island

Last reported at 2014-Sep-19 08:11 UTC. Time now 2014-Sep-19 09:51 UTC.
Position N 56°32' E 020°60'.

Length 178 m; draft 6.4 m.

Type: Cargo ship. MMSI: 355886000.

Date/timePositionNaut miles runAvg speedWind from/ knotsBaromVisibWave heightAir tempDewpointWater temp
2014-Sep-19 08:11N 56°32' E 020°60'0 0.0
2014-Sep-19 07:05N 56°32' E 020°60'0 0.0
2014-Sep-19 06:05N 56°32' E 020°60'0 0.0
2014-Sep-19 05:26N 56°32' E 020°60'0 0.0
2014-Sep-19 04:20N 56°32' E 020°60'0 0.0
2014-Sep-19 03:20N 56°32' E 020°60'0 0.0
2014-Sep-19 02:17N 56°32' E 020°60'0 0.0
2014-Sep-18 12:26N 56°32' E 020°60'0 0.0
2014-Sep-18 08:32N 56°32' E 020°60'0 0.0
2014-Sep-18 07:32N 56°32' E 020°60'0 0.0
2014-Sep-18 06:32N 56°32' E 020°60'0 0.0
2014-Sep-18 05:32N 56°32' E 020°60'0 0.0
2014-Sep-18 04:32N 56°32' E 020°60'0 0.0
2014-Sep-18 03:23N 56°32' E 020°60'0 0.0
2014-Sep-18 02:26N 56°32' E 020°60'0 0.0
2014-Sep-18 01:29N 56°32' E 020°60'0 0.0
2014-Sep-17 20:14N 56°32' E 020°60'0 0.0
2014-Sep-17 05:22N 56°32' E 020°60'6 3.6
2014-Sep-17 03:33N 56°30' E 020°48'2 0.1
2014-Sep-16 07:29N 56°32' E 020°45'29 1.7
2014-Sep-15 14:08N 56°20' E 019°57'712.7
2014-Sep-15 13:33N 56°18' E 019°44'1312.5
2014-Sep-15 12:33N 56°14' E 019°23'1712.3
2014-Sep-15 11:10N 56°09' E 018°53'812.3
2014-Sep-15 10:33N 56°07' E 018°41'1512.1
2014-Sep-15 09:21N 56°02' E 018°16'1012.0
2014-Sep-15 08:33N 55°59' E 017°59'1711.9
2014-Sep-15 07:05N 55°55' E 017°29'611.8
2014-Sep-15 06:33N 55°53' E 017°18'1211.8
2014-Sep-15 05:32N 55°49' E 016°58'1411.9
2014-Sep-15 04:20N 55°45' E 016°34'1011.8
2014-Sep-15 03:31N 55°43' E 016°17'2612.4
2014-Sep-15 01:26N 55°37' E 015°32'1011.6
2014-Sep-15 00:33N 55°33' E 015°16'1111.5
2014-Sep-14 23:34N 55°29' E 014°57'1111.3
2014-Sep-14 22:34N 55°24' E 014°39'1111.3
2014-Sep-14 21:33N 55°15' E 014°27'10 9.7
2014-Sep-14 20:33N 55°10' E 014°12'1010.4
2014-Sep-14 19:33N 55°11' E 013°53'1010.1
2014-Sep-14 18:33N 55°11' E 013°36'1010.3
2014-Sep-14 17:33N 55°11' E 013°18'1010.3
2014-Sep-14 16:33N 55°13' E 012°60'1110.9
2014-Sep-14 15:33N 55°17' E 012°42'1110.7
2014-Sep-14 14:33N 55°28' E 012°40'1010.1
2014-Sep-14 13:33N 55°38' E 012°42'1211.8
2014-Sep-14 12:33N 55°50' E 012°42'1212.0
2014-Sep-14 11:33N 56°02' E 012°40'10 9.5
2014-Sep-14 10:33N 56°08' E 012°28'9 8.6
2014-Sep-14 09:33N 56°13' E 012°15'6 5.5
2014-Sep-14 08:33N 56°16' E 012°06'5 5.4
2014-Sep-14 07:33N 56°20' E 012°01'5 5.4
2014-Sep-14 06:33N 56°26' E 011°59'10 9.8
2014-Sep-14 05:33N 56°35' E 011°57'1312.6
2014-Sep-14 04:33N 56°48' E 011°51'1212.5
2014-Sep-14 03:33N 56°59' E 011°43'1212.2
2014-Sep-14 02:33N 57°11' E 011°35'1313.0
2014-Sep-14 01:33N 57°23' E 011°27'18411.5
2014-Sep-13 09:33N 58°03' E 005°51'1212.3
2014-Sep-13 08:33N 58°11' E 005°33'1312.4
2014-Sep-13 07:32N 58°19' E 005°15'  
Track history (hours):
 
Tides and Currents Weather Stations Pressure Air Temp Water Temp Dewpoint Dewpoint Depression Visibility Wind Speed Wind Dir Waves Ship Positions

Liberty Island

Last reported at 2014-Sep-19 08:11 UTC. Time now 2014-Sep-19 09:51 UTC.
Position N 56°32' E 020°60'.

Length 178 m; draft 6.4 m.

Type: Cargo ship. MMSI: 355886000.

Date/timePositionNaut miles runAvg speedWind from/ knotsBaromVisibWave heightAir tempDewpointWater temp
2014-Sep-19 08:11N 56°32' E 020°60'0 0.0
2014-Sep-19 07:05N 56°32' E 020°60'0 0.0
2014-Sep-19 06:05N 56°32' E 020°60'0 0.0
2014-Sep-19 05:26N 56°32' E 020°60'0 0.0
2014-Sep-19 04:20N 56°32' E 020°60'0 0.0
2014-Sep-19 03:20N 56°32' E 020°60'0 0.0
2014-Sep-19 02:17N 56°32' E 020°60'0 0.0
2014-Sep-18 12:26N 56°32' E 020°60'0 0.0
2014-Sep-18 08:32N 56°32' E 020°60'0 0.0
2014-Sep-18 07:32N 56°32' E 020°60'0 0.0
2014-Sep-18 06:32N 56°32' E 020°60'0 0.0
2014-Sep-18 05:32N 56°32' E 020°60'0 0.0
2014-Sep-18 04:32N 56°32' E 020°60'0 0.0
2014-Sep-18 03:23N 56°32' E 020°60'0 0.0
2014-Sep-18 02:26N 56°32' E 020°60'0 0.0
2014-Sep-18 01:29N 56°32' E 020°60'0 0.0
2014-Sep-17 20:14N 56°32' E 020°60'0 0.0
2014-Sep-17 05:22N 56°32' E 020°60'6 3.6
2014-Sep-17 03:33N 56°30' E 020°48'2 0.1
2014-Sep-16 07:29N 56°32' E 020°45'29 1.7
2014-Sep-15 14:08N 56°20' E 019°57'712.7
2014-Sep-15 13:33N 56°18' E 019°44'1312.5
2014-Sep-15 12:33N 56°14' E 019°23'1712.3
2014-Sep-15 11:10N 56°09' E 018°53'812.3
2014-Sep-15 10:33N 56°07' E 018°41'1512.1
2014-Sep-15 09:21N 56°02' E 018°16'1012.0
2014-Sep-15 08:33N 55°59' E 017°59'1711.9
2014-Sep-15 07:05N 55°55' E 017°29'611.8
2014-Sep-15 06:33N 55°53' E 017°18'1211.8
2014-Sep-15 05:32N 55°49' E 016°58'1411.9
2014-Sep-15 04:20N 55°45' E 016°34'1011.8
2014-Sep-15 03:31N 55°43' E 016°17'2612.4
2014-Sep-15 01:26N 55°37' E 015°32'1011.6
2014-Sep-15 00:33N 55°33' E 015°16'1111.5
2014-Sep-14 23:34N 55°29' E 014°57'1111.3
2014-Sep-14 22:34N 55°24' E 014°39'1111.3
2014-Sep-14 21:33N 55°15' E 014°27'10 9.7
2014-Sep-14 20:33N 55°10' E 014°12'1010.4
2014-Sep-14 19:33N 55°11' E 013°53'1010.1
2014-Sep-14 18:33N 55°11' E 013°36'1010.3
2014-Sep-14 17:33N 55°11' E 013°18'1010.3
2014-Sep-14 16:33N 55°13' E 012°60'1110.9
2014-Sep-14 15:33N 55°17' E 012°42'1110.7
2014-Sep-14 14:33N 55°28' E 012°40'1010.1
2014-Sep-14 13:33N 55°38' E 012°42'1211.8
2014-Sep-14 12:33N 55°50' E 012°42'1212.0
2014-Sep-14 11:33N 56°02' E 012°40'10 9.5
2014-Sep-14 10:33N 56°08' E 012°28'9 8.6
2014-Sep-14 09:33N 56°13' E 012°15'6 5.5
2014-Sep-14 08:33N 56°16' E 012°06'5 5.4
2014-Sep-14 07:33N 56°20' E 012°01'5 5.4
2014-Sep-14 06:33N 56°26' E 011°59'10 9.8
2014-Sep-14 05:33N 56°35' E 011°57'1312.6
2014-Sep-14 04:33N 56°48' E 011°51'1212.5
2014-Sep-14 03:33N 56°59' E 011°43'1212.2
2014-Sep-14 02:33N 57°11' E 011°35'1313.0
2014-Sep-14 01:33N 57°23' E 011°27'18411.5
2014-Sep-13 09:33N 58°03' E 005°51'1212.3
2014-Sep-13 08:33N 58°11' E 005°33'1312.4
2014-Sep-13 07:32N 58°19' E 005°15'  

Dump ship's entire track history